Time;durP1;ratioP1;P1;durP2;ratioP2;P2;SDS_P1;SDS_P2;PMS_P1;PMS_P2;Temp;Humidity;BMP_temperature;BMP_pressure;BME280_temperature;BME280_humidity;BME280_pressure;Samples;Min_cycle;Max_cycle;Signal;HPM_P1;HPM_P2
2024/01/28 00:01:18;;;;;;;18.42;9.60;;;2.60;99.90;;;;;;5063525;28;20394;-84
2024/01/28 00:03:43;;;;;;;14.70;8.32;;;2.50;99.90;;;;;;5070675;28;20037;-83
2024/01/28 00:06:09;;;;;;;20.13;8.73;;;2.50;99.90;;;;;;5066868;28;20041;-84
2024/01/28 00:08:35;;;;;;;24.85;9.10;;;2.50;99.90;;;;;;5066842;28;20543;-84
2024/01/28 00:11:00;;;;;;;25.95;9.65;;;2.80;99.90;;;;;;5056621;28;20074;-83
2024/01/28 00:13:26;;;;;;;21.33;8.82;;;2.80;99.90;;;;;;5057016;28;20048;-84
2024/01/28 00:15:55;;;;;;;24.27;9.15;;;2.50;99.90;;;;;;5057439;28;20140;-83
2024/01/28 00:18:21;;;;;;;20.83;8.10;;;2.50;99.90;;;;;;5069745;28;20505;-83
2024/01/28 00:20:47;;;;;;;19.58;8.20;;;2.50;99.90;;;;;;5042495;28;20128;-84
2024/01/28 00:23:12;;;;;;;23.90;8.90;;;2.50;99.90;;;;;;5068290;28;20055;-83
2024/01/28 00:25:38;;;;;;;16.65;8.27;;;3.10;99.90;;;;;;5053968;28;20044;-83
2024/01/28 00:28:04;;;;;;;19.20;9.80;;;2.70;99.90;;;;;;5069407;28;20044;-84
2024/01/28 00:30:32;;;;;;;18.85;8.18;;;2.50;99.90;;;;;;5057912;28;20098;-83
2024/01/28 00:32:58;;;;;;;17.42;8.13;;;2.40;99.90;;;;;;5053386;28;20044;-84
2024/01/28 00:35:24;;;;;;;19.38;8.57;;;2.40;99.90;;;;;;5050582;28;20045;-84
2024/01/28 00:37:50;;;;;;;18.38;9.05;;;2.40;99.90;;;;;;5069092;28;20049;-83
2024/01/28 00:40:15;;;;;;;20.00;8.55;;;2.40;99.90;;;;;;5061113;28;20049;-84
2024/01/28 00:42:41;;;;;;;23.40;8.75;;;2.40;99.90;;;;;;5060880;28;20053;-84
2024/01/28 00:45:07;;;;;;;18.90;8.50;;;2.40;99.90;;;;;;5059182;28;20070;-84
2024/01/28 00:47:35;;;;;;;21.42;8.85;;;2.40;99.90;;;;;;5065338;28;20080;-83
2024/01/28 00:50:01;;;;;;;22.63;8.65;;;2.40;99.90;;;;;;5068784;28;20048;-84
2024/01/28 00:52:26;;;;;;;18.90;8.75;;;3.30;99.90;;;;;;5060044;28;20498;-84
2024/01/28 00:54:52;;;;;;;21.85;9.05;;;2.40;99.90;;;;;;5051425;28;20041;-84
2024/01/28 00:57:20;;;;;;;21.08;8.90;;;2.40;99.90;;;;;;5066232;28;20048;-83
2024/01/28 00:59:45;;;;;;;17.30;8.63;;;3.30;99.90;;;;;;5056094;28;20045;-84
2024/01/28 01:02:11;;;;;;;22.80;8.88;;;2.40;99.90;;;;;;5051195;28;20501;-84
2024/01/28 01:04:37;;;;;;;19.50;9.85;;;2.40;99.90;;;;;;5060345;28;20492;-84
2024/01/28 01:07:03;;;;;;;18.25;8.90;;;2.40;99.90;;;;;;5063923;28;20446;-84
2024/01/28 01:09:28;;;;;;;22.15;8.50;;;2.40;99.90;;;;;;5055351;28;20059;-84
2024/01/28 01:11:54;;;;;;;16.52;7.95;;;2.40;99.90;;;;;;5068336;28;20041;-83
2024/01/28 01:14:19;;;;;;;17.65;9.25;;;2.40;99.90;;;;;;5056415;28;20037;-84
2024/01/28 01:16:45;;;;;;;17.00;8.13;;;2.40;99.90;;;;;;5069060;28;20131;-83
2024/01/28 01:19:11;;;;;;;19.83;8.68;;;2.40;99.90;;;;;;5076734;28;20052;-83
2024/01/28 01:21:36;;;;;;;16.77;7.72;;;2.30;99.90;;;;;;5061615;28;20510;-83
2024/01/28 01:24:02;;;;;;;17.83;8.52;;;2.80;99.90;;;;;;5056847;28;20041;-83
2024/01/28 01:26:28;;;;;;;18.35;8.90;;;2.30;99.90;;;;;;5066398;28;20048;-83
2024/01/28 01:28:53;;;;;;;20.55;9.13;;;2.30;99.90;;;;;;5063509;28;20124;-83
2024/01/28 01:31:20;;;;;;;17.85;8.82;;;2.30;99.90;;;;;;5067882;28;20212;-83
2024/01/28 01:33:46;;;;;;;17.83;8.73;;;2.30;99.90;;;;;;5064757;28;20495;-84
2024/01/28 01:36:12;;;;;;;18.25;8.13;;;2.30;99.90;;;;;;5062706;28;20048;-84
2024/01/28 01:38:38;;;;;;;23.38;9.55;;;2.80;99.90;;;;;;5069385;28;20496;-84
2024/01/28 01:41:04;;;;;;;17.70;7.85;;;2.30;99.90;;;;;;5068248;28;20037;-83
2024/01/28 01:43:30;;;;;;;19.38;8.57;;;2.30;99.90;;;;;;5083729;28;20510;-84
2024/01/28 01:45:58;;;;;;;15.02;7.55;;;2.30;99.90;;;;;;5069182;28;20055;-84
2024/01/28 01:48:24;;;;;;;15.75;8.30;;;2.50;99.90;;;;;;5057618;28;20045;-84
2024/01/28 01:50:50;;;;;;;19.70;9.02;;;2.30;99.90;;;;;;5051333;28;20121;-83
2024/01/28 01:53:17;;;;;;;16.85;8.77;;;2.30;99.90;;;;;;5050822;28;20131;-85
2024/01/28 01:55:43;;;;;;;19.88;8.20;;;2.30;99.90;;;;;;5056721;28;20457;-83
2024/01/28 01:58:10;;;;;;;19.50;8.23;;;2.30;99.90;;;;;;5072547;28;20051;-84
2024/01/28 02:00:37;;;;;;;16.85;7.70;;;2.30;99.90;;;;;;5071782;28;20049;-84
2024/01/28 02:03:03;;;;;;;17.77;8.45;;;2.30;99.90;;;;;;5047807;28;20047;-84
2024/01/28 02:05:29;;;;;;;15.43;8.70;;;2.30;99.90;;;;;;5056220;28;20036;-84
2024/01/28 02:07:54;;;;;;;18.55;8.32;;;3.30;99.90;;;;;;5070510;28;20075;-83
2024/01/28 02:10:25;;;;;;;20.23;9.07;;;2.30;99.90;;;;;;5055559;28;20045;-84
2024/01/28 02:12:50;;;;;;;19.45;8.73;;;2.30;99.90;;;;;;5068112;28;20045;-83
2024/01/28 02:15:17;;;;;;;14.60;7.72;;;2.30;99.90;;;;;;5065050;28;20489;-84
2024/01/28 02:17:43;;;;;;;17.85;8.05;;;2.30;99.90;;;;;;5063053;28;20039;-84
2024/01/28 02:20:09;;;;;;;20.80;9.00;;;2.30;99.90;;;;;;5074448;28;20041;-83
2024/01/28 02:22:35;;;;;;;19.08;8.50;;;2.30;99.90;;;;;;5074683;28;20721;-83
2024/01/28 02:25:03;;;;;;;23.65;9.43;;;3.10;99.90;;;;;;5074499;28;20045;-84
2024/01/28 02:27:31;;;;;;;20.63;8.70;;;2.30;99.90;;;;;;5071653;28;20494;-84
2024/01/28 02:29:57;;;;;;;20.50;8.75;;;2.40;99.90;;;;;;5061223;28;20418;-84
2024/01/28 02:32:22;;;;;;;20.83;9.07;;;2.30;99.90;;;;;;5075239;28;20048;-83
2024/01/28 02:34:48;;;;;;;21.45;9.35;;;2.40;99.90;;;;;;5070788;28;20044;-84
2024/01/28 02:37:14;;;;;;;21.63;9.07;;;2.40;99.90;;;;;;5066916;28;20140;-83
2024/01/28 02:39:40;;;;;;;18.52;9.93;;;2.40;99.90;;;;;;5056549;28;20072;-84
2024/01/28 02:42:06;;;;;;;20.42;9.02;;;2.40;99.90;;;;;;5059471;28;20045;-84
2024/01/28 02:44:32;;;;;;;22.52;9.13;;;2.30;99.90;;;;;;5054426;28;20106;-84
2024/01/28 02:47:01;;;;;;;22.65;8.55;;;2.90;99.90;;;;;;5074283;28;20040;-83
2024/01/28 02:49:26;;;;;;;19.92;7.72;;;2.40;99.90;;;;;;5054361;28;20064;-84
2024/01/28 02:51:52;;;;;;;19.10;8.57;;;2.40;99.90;;;;;;5056410;28;20041;-84
2024/01/28 02:54:18;;;;;;;17.65;8.85;;;2.40;99.90;;;;;;5054051;28;20482;-84
2024/01/28 02:56:44;;;;;;;21.52;8.57;;;2.50;99.90;;;;;;5071165;28;20433;-84
2024/01/28 02:59:15;;;;;;;22.73;8.43;;;2.40;99.90;;;;;;5074978;28;20047;-84
2024/01/28 03:01:54;;;;;;;15.77;7.82;;;2.50;99.90;;;;;;5066589;28;20048;-83
2024/01/28 03:04:20;;;;;;;19.48;7.95;;;2.50;99.90;;;;;;5065547;28;20056;-83
2024/01/28 03:06:46;;;;;;;17.30;7.72;;;2.50;99.90;;;;;;5062067;28;20056;-83
2024/01/28 03:09:13;;;;;;;19.55;8.18;;;2.50;99.90;;;;;;5052805;28;20045;-83
2024/01/28 03:11:39;;;;;;;19.52;8.85;;;2.50;99.90;;;;;;5063944;28;20044;-83
2024/01/28 03:14:06;;;;;;;16.25;8.27;;;2.70;99.90;;;;;;5060312;28;20120;-83
2024/01/28 03:16:32;;;;;;;20.27;8.45;;;2.50;99.90;;;;;;5057971;28;20117;-83
2024/01/28 03:18:58;;;;;;;19.60;7.78;;;2.50;99.90;;;;;;5071920;28;20490;-84
2024/01/28 03:21:24;;;;;;;18.73;8.32;;;2.50;99.90;;;;;;5073867;28;20053;-83
2024/01/28 03:23:49;;;;;;;20.33;8.20;;;2.50;99.90;;;;;;5073904;28;20056;-83
2024/01/28 03:26:15;;;;;;;21.65;9.27;;;2.50;99.90;;;;;;5070657;28;20101;-83
2024/01/28 03:28:42;;;;;;;15.52;8.55;;;2.50;99.90;;;;;;5058987;28;20056;-84
2024/01/28 03:31:08;;;;;;;17.48;8.27;;;2.50;99.90;;;;;;5069964;28;20049;-83
2024/01/28 03:33:34;;;;;;;21.00;8.40;;;2.50;99.90;;;;;;5063904;28;20063;-83
2024/01/28 03:35:59;;;;;;;18.20;8.23;;;2.50;99.90;;;;;;5050347;28;20095;-84
2024/01/28 03:38:25;;;;;;;17.80;7.90;;;2.50;99.90;;;;;;5053951;28;20532;-84
2024/01/28 03:40:51;;;;;;;17.63;8.20;;;2.50;99.90;;;;;;5075190;28;20390;-82
2024/01/28 03:43:16;;;;;;;18.23;7.75;;;2.50;99.90;;;;;;5063653;28;20486;-83
2024/01/28 03:45:42;;;;;;;24.63;9.30;;;2.50;99.90;;;;;;5057116;28;20036;-83
2024/01/28 03:48:08;;;;;;;16.77;7.93;;;2.50;99.90;;;;;;5056337;28;20097;-84
2024/01/28 03:50:33;;;;;;;20.17;8.77;;;2.50;99.90;;;;;;5072544;28;20102;-83
2024/01/28 03:52:59;;;;;;;24.83;8.77;;;2.50;99.90;;;;;;5072962;28;20044;-83
2024/01/28 03:55:25;;;;;;;22.25;9.50;;;2.50;99.90;;;;;;5055857;28;20044;-83
2024/01/28 03:57:51;;;;;;;19.58;8.15;;;2.50;99.90;;;;;;5074392;28;20052;-83
2024/01/28 04:00:18;;;;;;;19.42;8.65;;;3.10;99.90;;;;;;5069498;28;20052;-83
2024/01/28 04:02:44;;;;;;;21.67;9.07;;;2.40;99.90;;;;;;5073447;28;20056;-84
2024/01/28 04:05:10;;;;;;;17.25;8.48;;;2.40;99.90;;;;;;5056279;28;20059;-84
2024/01/28 04:07:36;;;;;;;23.58;8.77;;;2.50;99.90;;;;;;5066015;28;20041;-83
2024/01/28 04:10:01;;;;;;;19.38;8.43;;;2.40;99.90;;;;;;5068887;28;20390;-84
2024/01/28 04:12:27;;;;;;;15.07;8.23;;;2.40;99.90;;;;;;5061022;28;20043;-84
2024/01/28 04:14:53;;;;;;;22.45;8.77;;;2.40;99.90;;;;;;5071957;28;20477;-84
2024/01/28 04:17:18;;;;;;;17.08;8.50;;;2.40;99.90;;;;;;5062734;28;20037;-83
2024/01/28 04:19:44;;;;;;;20.02;9.18;;;2.80;99.90;;;;;;5072304;28;20426;-83
2024/01/28 04:22:10;;;;;;;16.08;8.68;;;2.30;99.90;;;;;;5059360;28;20491;-84
2024/01/28 04:24:35;;;;;;;17.75;8.90;;;2.90;99.90;;;;;;5071934;28;20151;-84
2024/01/28 04:27:02;;;;;;;18.60;9.52;;;2.30;99.90;;;;;;5071217;28;20041;-84
2024/01/28 04:29:27;;;;;;;20.40;9.77;;;2.30;99.90;;;;;;5069381;28;20048;-83
2024/01/28 04:31:56;;;;;;;21.63;9.52;;;2.30;99.90;;;;;;5072010;28;20045;-83
2024/01/28 04:34:22;;;;;;;18.52;8.88;;;2.30;99.90;;;;;;5073014;28;20060;-84
2024/01/28 04:36:48;;;;;;;22.33;9.13;;;2.50;99.90;;;;;;5055031;28;20045;-83
2024/01/28 04:39:15;;;;;;;21.40;9.68;;;2.30;99.90;;;;;;5068357;28;20055;-84
2024/01/28 04:41:41;;;;;;;19.25;9.30;;;2.20;99.90;;;;;;5062411;28;20051;-83
2024/01/28 04:44:07;;;;;;;18.27;8.88;;;2.20;99.90;;;;;;5061117;28;20472;-84
2024/01/28 04:46:33;;;;;;;18.65;9.77;;;2.20;99.90;;;;;;5063583;28;20394;-83
2024/01/28 04:49:00;;;;;;;25.33;9.80;;;2.20;99.90;;;;;;5063661;28;20076;-83
2024/01/28 04:51:29;;;;;;;28.00;9.75;;;2.20;99.90;;;;;;5051633;28;20041;-83
2024/01/28 04:53:55;;;;;;;19.35;9.40;;;2.10;99.90;;;;;;5063978;28;20581;-84
2024/01/28 04:56:21;;;;;;;24.80;8.95;;;2.10;99.90;;;;;;5070558;28;20115;-84
2024/01/28 04:58:47;;;;;;;22.52;9.25;;;2.10;99.90;;;;;;5054913;28;20056;-84
2024/01/28 05:01:13;;;;;;;18.52;10.15;;;2.10;99.90;;;;;;5070329;28;20060;-84
2024/01/28 05:03:38;;;;;;;18.63;9.10;;;2.10;99.90;;;;;;5083922;28;20390;-84
2024/01/28 05:06:04;;;;;;;19.52;9.20;;;2.10;99.90;;;;;;5054820;28;20048;-84
2024/01/28 05:08:30;;;;;;;19.40;9.55;;;2.80;99.90;;;;;;5060669;28;20041;-81
2024/01/28 05:10:57;;;;;;;23.55;10.20;;;2.00;99.90;;;;;;5068933;28;20443;-84
2024/01/28 05:13:23;;;;;;;22.55;9.40;;;2.00;99.90;;;;;;5065348;28;20533;-84
2024/01/28 05:15:49;;;;;;;17.55;9.25;;;2.00;99.90;;;;;;5058669;28;20051;-83
2024/01/28 05:18:15;;;;;;;15.63;8.60;;;2.00;99.90;;;;;;5048303;28;20045;-84
2024/01/28 05:20:41;;;;;;;19.10;9.23;;;2.00;99.90;;;;;;5036794;28;20813;-84
2024/01/28 05:23:07;;;;;;;28.25;10.13;;;2.00;99.90;;;;;;5052182;28;20142;-84
2024/01/28 05:25:32;;;;;;;18.08;8.70;;;0.90;99.90;;;;;;5069798;28;20049;-84
2024/01/28 05:27:58;;;;;;;22.58;10.20;;;1.90;99.90;;;;;;5063507;28;20122;-84
2024/01/28 05:30:23;;;;;;;17.30;7.63;;;1.90;99.90;;;;;;5064669;28;20052;-84
2024/01/28 05:32:50;;;;;;;16.80;8.02;;;1.90;99.90;;;;;;5066127;28;20032;-84
2024/01/28 05:35:15;;;;;;;19.75;8.70;;;1.90;99.90;;;;;;5071101;28;20171;-83
2024/01/28 05:37:41;;;;;;;16.48;8.68;;;1.90;99.90;;;;;;5068375;28;20128;-84
2024/01/28 05:40:10;;;;;;;19.92;9.18;;;1.90;99.90;;;;;;5051062;28;20053;-84
2024/01/28 05:42:36;;;;;;;21.38;8.95;;;1.90;99.90;;;;;;5055894;28;20132;-84
2024/01/28 05:45:03;;;;;;;18.17;9.30;;;1.90;99.90;;;;;;5052184;28;20464;-84
2024/01/28 05:47:29;;;;;;;19.10;8.60;;;1.90;99.90;;;;;;5070535;28;20120;-83
2024/01/28 05:49:55;;;;;;;16.08;8.00;;;1.90;99.90;;;;;;5065434;28;20444;-84
2024/01/28 05:52:20;;;;;;;21.17;8.32;;;2.70;99.90;;;;;;5055279;28;20041;-84
2024/01/28 05:54:46;;;;;;;15.95;8.07;;;1.80;99.90;;;;;;5061366;28;20394;-84
2024/01/28 05:57:12;;;;;;;17.05;8.40;;;1.80;99.90;;;;;;5042915;28;20440;-83
2024/01/28 05:59:38;;;;;;;13.27;8.18;;;1.80;99.90;;;;;;5066024;28;20055;-84
2024/01/28 06:02:04;;;;;;;16.55;7.80;;;1.80;99.90;;;;;;5066378;28;20378;-83
2024/01/28 06:04:30;;;;;;;15.38;7.78;;;1.80;99.90;;;;;;5070467;28;20127;-84
2024/01/28 06:06:55;;;;;;;16.17;8.25;;;1.80;99.90;;;;;;5056831;28;20094;-84
2024/01/28 06:09:21;;;;;;;17.55;7.68;;;1.80;99.90;;;;;;5057378;28;20486;-83
2024/01/28 06:11:47;;;;;;;14.32;7.80;;;1.80;99.90;;;;;;5065834;28;20439;-84
2024/01/28 06:14:13;;;;;;;18.20;8.05;;;2.90;99.90;;;;;;5042540;28;20048;-82
2024/01/28 06:16:38;;;;;;;19.88;8.55;;;1.70;99.90;;;;;;5061925;28;20072;-84
2024/01/28 06:19:04;;;;;;;19.92;7.95;;;1.70;99.90;;;;;;5060257;28;20510;-83
2024/01/28 06:21:30;;;;;;;21.20;9.30;;;1.70;99.90;;;;;;5068770;28;20057;-83
2024/01/28 06:23:56;;;;;;;18.23;9.20;;;1.70;99.90;;;;;;5070959;28;20044;-84
2024/01/28 06:26:22;;;;;;;23.13;7.97;;;1.70;99.90;;;;;;5062763;28;20524;-85
2024/01/28 06:28:48;;;;;;;15.60;8.77;;;1.70;99.90;;;;;;5049995;28;20086;-84
2024/01/28 06:31:15;;;;;;;17.65;8.30;;;1.70;99.90;;;;;;5061227;28;20183;-84
2024/01/28 06:33:43;;;;;;;15.45;8.00;;;1.70;99.90;;;;;;5060133;28;20060;-83
2024/01/28 06:36:08;;;;;;;17.30;9.30;;;1.60;99.90;;;;;;5064592;28;20071;-84
2024/01/28 06:38:34;;;;;;;20.25;9.07;;;1.60;99.90;;;;;;5068880;28;20704;-83
2024/01/28 06:41:01;;;;;;;20.60;8.93;;;1.60;99.90;;;;;;5064335;28;20040;-82
2024/01/28 06:43:27;;;;;;;18.92;8.85;;;1.60;99.90;;;;;;5068131;28;20081;-84
2024/01/28 06:45:53;;;;;;;15.32;8.93;;;1.60;99.90;;;;;;5066405;28;20047;-83
2024/01/28 06:48:19;;;;;;;14.02;7.95;;;1.60;99.90;;;;;;5076128;28;20048;-83
2024/01/28 06:50:48;;;;;;;18.10;9.15;;;1.60;99.90;;;;;;5075941;28;20110;-84
2024/01/28 06:53:13;;;;;;;15.32;9.10;;;1.80;99.90;;;;;;5073182;28;20048;-83
2024/01/28 06:55:39;;;;;;;15.23;8.77;;;1.60;99.90;;;;;;5054979;28;20505;-84
2024/01/28 06:58:05;;;;;;;17.85;9.65;;;1.60;99.90;;;;;;5075411;28;20464;-83
2024/01/28 07:00:31;;;;;;;20.52;10.00;;;1.60;99.90;;;;;;5074080;28;20132;-82
2024/01/28 07:02:57;;;;;;;19.08;8.65;;;1.60;99.90;;;;;;5064966;28;20055;-85
2024/01/28 07:05:23;;;;;;;16.45;8.60;;;1.50;99.90;;;;;;5051640;28;20119;-84
2024/01/28 07:07:50;;;;;;;13.75;9.00;;;1.50;99.90;;;;;;5070468;28;20118;-83
2024/01/28 07:10:16;;;;;;;23.75;9.65;;;1.50;99.90;;;;;;5050502;28;20482;-84
2024/01/28 07:12:42;;;;;;;17.50;8.95;;;1.50;99.90;;;;;;5043051;28;20041;-84
2024/01/28 07:15:08;;;;;;;16.55;8.45;;;1.50;99.90;;;;;;5064280;28;20059;-83
2024/01/28 07:17:35;;;;;;;15.85;9.15;;;1.50;99.90;;;;;;5054866;28;20048;-85
2024/01/28 07:20:01;;;;;;;19.65;9.55;;;1.50;99.90;;;;;;5048569;28;20141;-84
2024/01/28 07:22:26;;;;;;;16.08;9.18;;;1.40;99.90;;;;;;5066524;28;20464;-84
2024/01/28 07:24:52;;;;;;;15.27;9.27;;;1.40;99.90;;;;;;5067029;28;20102;-84
2024/01/28 07:27:17;;;;;;;16.50;8.77;;;1.40;99.90;;;;;;5066277;28;20068;-83
2024/01/28 07:29:43;;;;;;;14.93;9.07;;;1.40;99.90;;;;;;5065881;28;20051;-84
2024/01/28 07:32:13;;;;;;;17.45;8.88;;;1.40;99.90;;;;;;5065292;28;20482;-85
2024/01/28 07:34:40;;;;;;;18.65;8.98;;;1.40;99.90;;;;;;5062268;28;20053;-85
2024/01/28 07:37:06;;;;;;;17.92;9.73;;;1.30;99.90;;;;;;5051734;28;20037;-83
2024/01/28 07:39:32;;;;;;;16.48;9.20;;;1.40;99.90;;;;;;5071649;28;20509;-85
2024/01/28 07:42:00;;;;;;;16.27;8.70;;;1.40;99.90;;;;;;5073420;28;20032;-84
2024/01/28 07:44:26;;;;;;;16.40;8.55;;;1.30;99.90;;;;;;5074396;28;20044;-84
2024/01/28 07:46:53;;;;;;;15.25;9.15;;;1.30;99.90;;;;;;5053206;28;20052;-84
2024/01/28 07:49:19;;;;;;;18.45;10.48;;;1.30;99.90;;;;;;5062994;28;20049;-84
2024/01/28 07:51:45;;;;;;;15.38;9.38;;;1.30;99.90;;;;;;5077397;28;20394;-85
2024/01/28 07:54:11;;;;;;;17.38;9.63;;;1.80;99.90;;;;;;5074309;28;20041;-84
2024/01/28 07:56:37;;;;;;;17.20;9.50;;;1.30;99.90;;;;;;5074447;28;20072;-84
2024/01/28 07:59:02;;;;;;;17.08;8.32;;;1.80;99.90;;;;;;5071241;28;20126;-84
2024/01/28 08:01:30;;;;;;;17.02;9.35;;;1.30;99.90;;;;;;5073649;28;20051;-85
2024/01/28 08:03:56;;;;;;;21.52;9.73;;;1.30;99.90;;;;;;5063011;28;20091;-85
2024/01/28 08:06:22;;;;;;;17.58;9.77;;;1.40;99.90;;;;;;5071501;28;20052;-85
2024/01/28 08:08:48;;;;;;;17.35;9.15;;;1.40;99.90;;;;;;5057784;28;20041;-85
2024/01/28 08:11:17;;;;;;;21.30;8.85;;;1.40;99.90;;;;;;5040994;28;20057;-84
2024/01/28 08:13:43;;;;;;;17.08;8.00;;;1.40;99.90;;;;;;5057529;28;20119;-85
2024/01/28 08:16:09;;;;;;;18.33;8.88;;;1.40;99.90;;;;;;5038830;28;20489;-84
2024/01/28 08:18:35;;;;;;;17.45;8.30;;;1.40;99.90;;;;;;5080128;28;20078;-85
2024/01/28 08:21:00;;;;;;;18.10;8.65;;;1.40;99.90;;;;;;5062372;28;20118;-84
2024/01/28 08:23:26;;;;;;;18.65;9.02;;;1.40;99.90;;;;;;5066388;28;20045;-84
2024/01/28 08:25:53;;;;;;;19.13;8.43;;;1.40;99.90;;;;;;5074238;28;20121;-88
2024/01/28 08:28:20;;;;;;;16.35;8.70;;;1.50;99.90;;;;;;5068164;28;20514;-86
2024/01/28 08:30:46;;;;;;;13.20;7.55;;;1.50;99.90;;;;;;5066443;28;20344;-88
2024/01/28 08:33:16;;;;;;;14.75;8.20;;;1.50;99.90;;;;;;5066044;28;20080;-88
2024/01/28 08:35:43;;;;;;;18.05;7.95;;;1.50;99.90;;;;;;5062885;28;20531;-89
2024/01/28 08:38:10;;;;;;;15.70;7.43;;;1.50;99.90;;;;;;5061888;28;20052;-89
2024/01/28 08:40:38;;;;;;;17.95;8.60;;;1.50;99.90;;;;;;5071374;28;20056;-89
2024/01/28 08:43:05;;;;;;;14.73;7.63;;;1.50;99.90;;;;;;5067473;28;20059;-88
2024/01/28 08:45:31;;;;;;;16.45;8.07;;;1.60;99.90;;;;;;5067043;28;20067;-86
2024/01/28 08:47:56;;;;;;;13.23;7.85;;;1.60;99.90;;;;;;5088162;28;20051;-88
2024/01/28 08:50:23;;;;;;;15.98;6.97;;;1.60;99.90;;;;;;5089603;28;20041;-89
2024/01/28 08:52:51;;;;;;;15.50;8.35;;;1.60;99.90;;;;;;5066656;28;20056;-87
2024/01/28 08:55:18;;;;;;;16.17;7.85;;;1.60;99.90;;;;;;5083106;28;20056;-88
2024/01/28 08:57:43;;;;;;;14.75;7.25;;;1.60;99.90;;;;;;5065158;28;20041;-87
2024/01/28 09:00:12;;;;;;;14.23;6.72;;;1.70;99.90;;;;;;5083392;28;20100;-90
2024/01/28 09:02:39;;;;;;;16.40;7.00;;;1.70;99.90;;;;;;5084510;28;20045;-88
2024/01/28 09:05:10;;;;;;;10.98;6.35;;;1.70;99.90;;;;;;5060821;28;20036;-88
2024/01/28 09:07:36;;;;;;;14.10;6.75;;;1.70;99.90;;;;;;5066206;28;20044;-88
2024/01/28 09:10:02;;;;;;;16.15;6.65;;;1.80;99.90;;;;;;5067581;28;20052;-87
2024/01/28 09:12:29;;;;;;;14.55;6.75;;;1.80;99.90;;;;;;5057229;28;20052;-88
2024/01/28 09:14:56;;;;;;;12.15;5.95;;;1.80;99.90;;;;;;5067514;28;20036;-87
2024/01/28 09:17:21;;;;;;;12.20;5.90;;;1.80;99.90;;;;;;5070020;28;20052;-88
2024/01/28 09:19:49;;;;;;;15.77;6.35;;;1.90;99.90;;;;;;5071985;28;20135;-88
2024/01/28 09:22:15;;;;;;;12.55;5.07;;;1.90;99.90;;;;;;5072854;28;20055;-88
2024/01/28 09:24:42;;;;;;;14.88;5.32;;;2.00;99.90;;;;;;5071410;28;20063;-87
2024/01/28 09:27:08;;;;;;;12.00;5.18;;;2.00;99.90;;;;;;5070141;28;20423;-88
2024/01/28 09:29:39;;;;;;;10.80;5.13;;;2.10;99.90;;;;;;5057556;28;20048;-85
2024/01/28 09:32:05;;;;;;;11.25;4.63;;;2.50;99.90;;;;;;5061584;28;20041;-85
2024/01/28 09:34:31;;;;;;;9.70;5.20;;;2.20;99.90;;;;;;5070470;28;20106;-85
2024/01/28 09:36:57;;;;;;;10.15;4.78;;;2.30;99.90;;;;;;5040292;28;20067;-86
2024/01/28 09:39:22;;;;;;;9.45;4.72;;;2.40;99.90;;;;;;5045903;28;20049;-87
2024/01/28 09:42:23;;;;;;;11.65;4.07;;;2.50;99.90;;;;;;5027800;28;20045;-85
2024/01/28 09:44:49;;;;;;;8.50;4.20;;;2.60;99.90;;;;;;5060926;28;20044;-88
2024/01/28 09:47:17;;;;;;;7.57;3.97;;;2.70;99.90;;;;;;5071953;28;20060;-83
2024/01/28 09:49:44;;;;;;;14.38;4.95;;;2.70;99.90;;;;;;5071943;28;20052;-82
2024/01/28 09:52:11;;;;;;;9.23;5.20;;;2.80;99.90;;;;;;5055613;28;20048;-84
2024/01/28 09:54:41;;;;;;;11.10;4.35;;;2.90;99.90;;;;;;5041680;28;20514;-83
2024/01/28 09:57:08;;;;;;;9.82;4.70;;;3.00;99.90;;;;;;5051989;28;20061;-83
2024/01/28 09:59:37;;;;;;;9.38;4.50;;;3.20;99.90;;;;;;5063537;28;20052;-83
2024/01/28 10:02:04;;;;;;;10.45;4.47;;;3.20;99.90;;;;;;5062783;28;20040;-82
2024/01/28 10:04:31;;;;;;;11.73;4.57;;;3.40;99.90;;;;;;5063956;28;20054;-82
2024/01/28 10:07:01;;;;;;;7.93;3.70;;;3.70;99.90;;;;;;5069264;28;20512;-81
2024/01/28 10:09:30;;;;;;;14.18;4.32;;;3.70;99.90;;;;;;5066828;28;20297;-79
2024/01/28 10:12:00;;;;;;;8.48;4.70;;;3.90;99.90;;;;;;5064288;28;20052;-82
2024/01/28 10:14:27;;;;;;;11.40;4.88;;;4.10;99.90;;;;;;5054025;28;20059;-81
2024/01/28 10:16:54;;;;;;;10.15;3.35;;;4.20;99.90;;;;;;5063193;28;20040;-80
2024/01/28 10:19:20;;;;;;;10.70;3.60;;;4.30;99.90;;;;;;5045755;28;20084;-79
2024/01/28 10:21:46;;;;;;;16.65;4.93;;;4.40;99.90;;;;;;5066131;28;20132;-79
2024/01/28 10:24:14;;;;;;;9.07;3.45;;;4.50;99.90;;;;;;5067587;28;20060;-78
2024/01/28 10:26:40;;;;;;;8.77;4.20;;;4.50;99.90;;;;;;5074676;28;20101;-78
2024/01/28 10:29:09;;;;;;;7.65;3.42;;;4.50;99.90;;;;;;5067982;28;20100;-82
2024/01/28 10:31:36;;;;;;;15.32;3.97;;;4.50;99.90;;;;;;5066605;28;20475;-81
2024/01/28 10:34:02;;;;;;;9.55;3.30;;;4.30;99.90;;;;;;5078091;28;20066;-81
2024/01/28 10:36:29;;;;;;;12.70;3.40;;;4.60;99.90;;;;;;5067567;28;20052;-82
2024/01/28 10:39:01;;;;;;;10.45;3.05;;;5.00;99.90;;;;;;5074804;28;20060;-82
2024/01/28 10:41:27;;;;;;;5.95;2.58;;;4.70;99.90;;;;;;5066132;28;20044;-83
2024/01/28 10:44:00;;;;;;;11.57;3.10;;;5.90;99.90;;;;;;5072948;28;20041;-80
2024/01/28 10:46:39;;;;;;;9.63;3.10;;;5.00;99.90;;;;;;5071956;28;20131;-80
2024/01/28 10:49:08;;;;;;;9.63;3.03;;;5.10;99.90;;;;;;5068649;28;20179;-81
2024/01/28 10:51:35;;;;;;;6.78;2.58;;;5.20;99.90;;;;;;5068693;28;20064;-82
2024/01/28 10:54:07;;;;;;;7.97;2.92;;;5.30;99.90;;;;;;5068673;28;20166;-82
2024/01/28 10:56:35;;;;;;;5.75;2.90;;;5.50;99.90;;;;;;5068336;28;20049;-81
2024/01/28 10:59:01;;;;;;;5.68;2.58;;;5.50;99.90;;;;;;5064861;28;20055;-82
2024/01/28 11:01:29;;;;;;;6.07;2.72;;;5.60;99.90;;;;;;5067381;28;20080;-78
2024/01/28 11:03:56;;;;;;;9.50;3.10;;;5.70;99.90;;;;;;5067884;28;20450;-78
2024/01/28 11:06:29;;;;;;;8.85;2.72;;;5.80;99.90;;;;;;5058194;28;20048;-79
2024/01/28 11:08:55;;;;;;;9.45;3.35;;;5.90;99.90;;;;;;5072342;28;20139;-78
2024/01/28 11:11:24;;;;;;;7.95;2.53;;;6.00;99.90;;;;;;5074193;28;20089;-79
2024/01/28 11:13:50;;;;;;;11.20;3.20;;;6.10;99.90;;;;;;5071237;28;20037;-80
2024/01/28 11:16:16;;;;;;;8.43;3.13;;;6.20;99.90;;;;;;5067831;28;20036;-79
2024/01/28 11:18:56;;;;;;;7.38;2.63;;;6.50;99.90;;;;;;5067291;28;20447;-80
2024/01/28 11:21:23;;;;;;;7.07;3.00;;;6.40;99.90;;;;;;5076562;28;20060;-79
2024/01/28 11:23:48;;;;;;;5.32;2.35;;;6.90;99.90;;;;;;5072050;28;20045;-79
2024/01/28 11:26:18;;;;;;;7.88;3.42;;;6.60;99.90;;;;;;5074143;28;20046;-78
2024/01/28 11:28:52;;;;;;;7.15;3.55;;;7.00;99.90;;;;;;5067743;28;20114;-79
2024/01/28 11:31:32;;;;;;;16.98;7.13;;;6.70;99.90;;;;;;5066817;28;20364;-79
2024/01/28 11:34:19;;;;;;;15.32;4.93;;;7.00;99.90;;;;;;5058750;28;20085;-79
2024/01/28 11:36:47;;;;;;;8.05;2.75;;;6.80;99.90;;;;;;5063932;28;20494;-80
2024/01/28 11:39:15;;;;;;;6.50;2.20;;;6.90;99.90;;;;;;5067101;28;20062;-79
2024/01/28 11:41:43;;;;;;;8.18;2.83;;;7.00;99.90;;;;;;5076217;28;20056;-79
2024/01/28 11:44:09;;;;;;;10.15;2.67;;;7.40;99.90;;;;;;5070084;28;20036;-79
2024/01/28 11:46:36;;;;;;;5.07;1.83;;;7.10;99.90;;;;;;5070532;28;20048;-79
2024/01/28 11:49:03;;;;;;;5.85;2.30;;;7.50;99.90;;;;;;5049380;28;20080;-81
2024/01/28 11:51:33;;;;;;;8.50;3.03;;;7.30;99.90;;;;;;5066331;28;20048;-80
2024/01/28 11:54:03;;;;;;;8.75;2.65;;;7.30;99.90;;;;;;5071377;28;20508;-80
2024/01/28 11:56:31;;;;;;;7.65;2.50;;;7.40;99.90;;;;;;5080448;28;20047;-80
2024/01/28 11:58:58;;;;;;;7.22;3.05;;;7.50;99.90;;;;;;5060739;28;20060;-79
2024/01/28 12:01:24;;;;;;;7.47;2.45;;;7.60;99.90;;;;;;5065757;28;20407;-80
2024/01/28 12:03:56;;;;;;;7.70;3.05;;;7.70;99.90;;;;;;5071829;28;20041;-81
2024/01/28 12:06:27;;;;;;;10.05;2.47;;;7.70;99.90;;;;;;5064304;28;20075;-81
2024/01/28 12:08:53;;;;;;;7.97;2.47;;;7.80;99.90;;;;;;5062913;28;20044;-82
2024/01/28 12:11:28;;;;;;;8.13;2.28;;;7.70;99.90;;;;;;5062783;28;20040;-81
2024/01/28 12:13:55;;;;;;;8.73;2.50;;;7.90;99.90;;;;;;5056492;28;20053;-81
2024/01/28 12:16:22;;;;;;;7.63;2.95;;;8.00;99.90;;;;;;5051295;28;20040;-80
2024/01/28 12:18:48;;;;;;;8.45;2.40;;;8.00;99.90;;;;;;5067605;28;20122;-80
2024/01/28 12:21:21;;;;;;;7.75;2.70;;;8.10;99.90;;;;;;5066090;28;20064;-80
2024/01/28 12:23:47;;;;;;;5.50;2.33;;;8.10;99.90;;;;;;5066680;28;20132;-79
2024/01/28 12:26:16;;;;;;;7.25;2.88;;;8.20;99.90;;;;;;5069086;28;20041;-81
2024/01/28 12:28:45;;;;;;;10.77;2.67;;;8.20;99.90;;;;;;5070400;28;20041;-80
2024/01/28 12:31:11;;;;;;;7.20;3.08;;;8.20;99.90;;;;;;5072185;28;20056;-80
2024/01/28 12:33:37;;;;;;;7.25;3.38;;;8.20;99.90;;;;;;5068138;28;20051;-81
2024/01/28 12:36:03;;;;;;;6.80;2.47;;;8.30;99.90;;;;;;5070540;28;20075;-81
2024/01/28 12:38:28;;;;;;;9.48;3.70;;;8.30;99.90;;;;;;5045040;28;20090;-80
2024/01/28 12:40:54;;;;;;;8.18;2.70;;;8.40;99.90;;;;;;5067376;28;20044;-81
2024/01/28 12:43:20;;;;;;;8.57;3.08;;;8.40;99.90;;;;;;5063948;28;20037;-80
2024/01/28 12:45:46;;;;;;;8.02;3.40;;;8.70;99.90;;;;;;5060339;28;20059;-84